sensor_id;sensor_type;location;lat;lon;timestamp;P1;durP1;ratioP1;P2;durP2;ratioP2
2874;SDS011;1445;52.600;13.328;2023-04-25T00:02:07;8.35;;;3.20;;
2874;SDS011;1445;52.600;13.328;2023-04-25T00:04:33;4.30;;;2.97;;
2874;SDS011;1445;52.600;13.328;2023-04-25T00:06:59;4.80;;;3.40;;
2874;SDS011;1445;52.600;13.328;2023-04-25T00:09:26;6.50;;;3.00;;
2874;SDS011;1445;52.600;13.328;2023-04-25T00:11:52;5.53;;;3.08;;
2874;SDS011;1445;52.600;13.328;2023-04-25T00:14:18;5.28;;;3.05;;
2874;SDS011;1445;52.600;13.328;2023-04-25T00:16:43;7.55;;;3.10;;
2874;SDS011;1445;52.600;13.328;2023-04-25T00:19:09;4.22;;;3.03;;
2874;SDS011;1445;52.600;13.328;2023-04-25T00:21:34;4.25;;;2.38;;
2874;SDS011;1445;52.600;13.328;2023-04-25T00:24:02;3.97;;;3.00;;
2874;SDS011;1445;52.600;13.328;2023-04-25T00:26:28;6.57;;;2.70;;
2874;SDS011;1445;52.600;13.328;2023-04-25T00:28:55;3.45;;;2.35;;
2874;SDS011;1445;52.600;13.328;2023-04-25T00:31:20;4.80;;;3.03;;
2874;SDS011;1445;52.600;13.328;2023-04-25T00:33:46;5.78;;;2.83;;
2874;SDS011;1445;52.600;13.328;2023-04-25T00:36:12;4.15;;;2.65;;
2874;SDS011;1445;52.600;13.328;2023-04-25T00:38:38;5.10;;;2.90;;
2874;SDS011;1445;52.600;13.328;2023-04-25T00:41:05;4.47;;;2.67;;
2874;SDS011;1445;52.600;13.328;2023-04-25T00:43:31;6.53;;;3.03;;
2874;SDS011;1445;52.600;13.328;2023-04-25T00:45:57;5.40;;;2.65;;
2874;SDS011;1445;52.600;13.328;2023-04-25T00:48:25;6.07;;;2.97;;
2874;SDS011;1445;52.600;13.328;2023-04-25T00:50:54;5.47;;;2.78;;
2874;SDS011;1445;52.600;13.328;2023-04-25T00:53:22;5.70;;;3.08;;
2874;SDS011;1445;52.600;13.328;2023-04-25T00:55:49;5.10;;;2.55;;
2874;SDS011;1445;52.600;13.328;2023-04-25T00:58:18;6.50;;;2.70;;
2874;SDS011;1445;52.600;13.328;2023-04-25T01:00:45;7.55;;;3.40;;
2874;SDS011;1445;52.600;13.328;2023-04-25T01:03:12;6.55;;;3.03;;
2874;SDS011;1445;52.600;13.328;2023-04-25T01:05:47;5.00;;;2.70;;
2874;SDS011;1445;52.600;13.328;2023-04-25T01:08:13;5.45;;;3.00;;
2874;SDS011;1445;52.600;13.328;2023-04-25T01:10:39;8.15;;;3.00;;
2874;SDS011;1445;52.600;13.328;2023-04-25T01:13:05;8.85;;;3.00;;
2874;SDS011;1445;52.600;13.328;2023-04-25T01:15:30;5.05;;;2.72;;
2874;SDS011;1445;52.600;13.328;2023-04-25T01:17:56;6.35;;;3.72;;
2874;SDS011;1445;52.600;13.328;2023-04-25T01:20:23;7.32;;;3.08;;
2874;SDS011;1445;52.600;13.328;2023-04-25T01:22:50;8.35;;;3.20;;
2874;SDS011;1445;52.600;13.328;2023-04-25T01:25:15;5.35;;;3.15;;
2874;SDS011;1445;52.600;13.328;2023-04-25T01:27:42;7.00;;;3.78;;
2874;SDS011;1445;52.600;13.328;2023-04-25T01:30:07;6.55;;;3.53;;
2874;SDS011;1445;52.600;13.328;2023-04-25T01:32:34;5.60;;;3.03;;
2874;SDS011;1445;52.600;13.328;2023-04-25T01:35:04;6.55;;;2.85;;
2874;SDS011;1445;52.600;13.328;2023-04-25T01:37:34;6.75;;;3.08;;
2874;SDS011;1445;52.600;13.328;2023-04-25T01:40:03;5.93;;;2.90;;
2874;SDS011;1445;52.600;13.328;2023-04-25T01:42:31;5.97;;;2.95;;
2874;SDS011;1445;52.600;13.328;2023-04-25T01:44:59;6.55;;;3.35;;
2874;SDS011;1445;52.600;13.328;2023-04-25T01:47:25;6.60;;;3.40;;
2874;SDS011;1445;52.600;13.328;2023-04-25T01:49:51;7.03;;;3.33;;
2874;SDS011;1445;52.600;13.328;2023-04-25T01:52:16;7.20;;;2.97;;
2874;SDS011;1445;52.600;13.328;2023-04-25T01:54:41;5.10;;;2.97;;
2874;SDS011;1445;52.600;13.328;2023-04-25T01:57:10;4.80;;;2.95;;
2874;SDS011;1445;52.600;13.328;2023-04-25T01:59:36;5.82;;;3.03;;
2874;SDS011;1445;52.600;13.328;2023-04-25T02:02:01;6.80;;;3.50;;
2874;SDS011;1445;52.600;13.328;2023-04-25T02:04:29;7.10;;;3.63;;
2874;SDS011;1445;52.600;13.328;2023-04-25T02:06:54;8.73;;;3.58;;
2874;SDS011;1445;52.600;13.328;2023-04-25T02:09:20;4.97;;;3.17;;
2874;SDS011;1445;52.600;13.328;2023-04-25T02:11:45;6.07;;;3.72;;
2874;SDS011;1445;52.600;13.328;2023-04-25T02:14:11;7.95;;;4.03;;
2874;SDS011;1445;52.600;13.328;2023-04-25T02:16:36;8.05;;;4.22;;
2874;SDS011;1445;52.600;13.328;2023-04-25T02:19:02;11.43;;;4.45;;
2874;SDS011;1445;52.600;13.328;2023-04-25T02:21:27;9.13;;;4.72;;
2874;SDS011;1445;52.600;13.328;2023-04-25T02:23:52;6.43;;;3.90;;
2874;SDS011;1445;52.600;13.328;2023-04-25T02:26:18;5.95;;;3.70;;
2874;SDS011;1445;52.600;13.328;2023-04-25T02:28:44;9.15;;;4.63;;
2874;SDS011;1445;52.600;13.328;2023-04-25T02:31:10;8.52;;;4.15;;
2874;SDS011;1445;52.600;13.328;2023-04-25T02:33:35;6.47;;;3.40;;
2874;SDS011;1445;52.600;13.328;2023-04-25T02:36:00;8.05;;;3.85;;
2874;SDS011;1445;52.600;13.328;2023-04-25T02:38:26;7.13;;;4.38;;
2874;SDS011;1445;52.600;13.328;2023-04-25T02:40:51;6.30;;;4.35;;
2874;SDS011;1445;52.600;13.328;2023-04-25T02:43:17;8.02;;;4.28;;
2874;SDS011;1445;52.600;13.328;2023-04-25T02:45:42;7.22;;;4.00;;
2874;SDS011;1445;52.600;13.328;2023-04-25T02:48:07;8.10;;;3.83;;
2874;SDS011;1445;52.600;13.328;2023-04-25T02:50:33;10.00;;;4.28;;
2874;SDS011;1445;52.600;13.328;2023-04-25T02:52:58;8.52;;;4.30;;
2874;SDS011;1445;52.600;13.328;2023-04-25T02:55:24;7.47;;;4.97;;
2874;SDS011;1445;52.600;13.328;2023-04-25T02:57:49;8.75;;;4.82;;
2874;SDS011;1445;52.600;13.328;2023-04-25T03:00:15;8.15;;;4.03;;
2874;SDS011;1445;52.600;13.328;2023-04-25T03:02:41;12.13;;;4.07;;
2874;SDS011;1445;52.600;13.328;2023-04-25T03:05:06;8.15;;;4.50;;
2874;SDS011;1445;52.600;13.328;2023-04-25T03:07:32;6.80;;;4.22;;
2874;SDS011;1445;52.600;13.328;2023-04-25T03:09:57;7.93;;;3.85;;
2874;SDS011;1445;52.600;13.328;2023-04-25T03:12:23;7.97;;;3.85;;
2874;SDS011;1445;52.600;13.328;2023-04-25T03:14:48;8.35;;;4.13;;
2874;SDS011;1445;52.600;13.328;2023-04-25T03:17:13;10.55;;;5.30;;
2874;SDS011;1445;52.600;13.328;2023-04-25T03:19:39;16.25;;;5.07;;
2874;SDS011;1445;52.600;13.328;2023-04-25T03:22:04;7.32;;;3.80;;
2874;SDS011;1445;52.600;13.328;2023-04-25T03:24:29;11.60;;;5.10;;
2874;SDS011;1445;52.600;13.328;2023-04-25T03:26:55;9.48;;;5.63;;
2874;SDS011;1445;52.600;13.328;2023-04-25T03:29:20;6.68;;;4.18;;
2874;SDS011;1445;52.600;13.328;2023-04-25T03:31:49;8.20;;;5.07;;
2874;SDS011;1445;52.600;13.328;2023-04-25T03:34:15;6.25;;;4.28;;
2874;SDS011;1445;52.600;13.328;2023-04-25T03:36:40;6.53;;;4.03;;
2874;SDS011;1445;52.600;13.328;2023-04-25T03:39:06;10.32;;;5.32;;
2874;SDS011;1445;52.600;13.328;2023-04-25T03:41:31;7.25;;;4.20;;
2874;SDS011;1445;52.600;13.328;2023-04-25T03:43:57;6.80;;;4.47;;
2874;SDS011;1445;52.600;13.328;2023-04-25T03:46:22;13.57;;;5.03;;
2874;SDS011;1445;52.600;13.328;2023-04-25T03:48:47;6.68;;;4.63;;
2874;SDS011;1445;52.600;13.328;2023-04-25T03:51:13;18.42;;;5.82;;
2874;SDS011;1445;52.600;13.328;2023-04-25T03:53:38;6.15;;;4.40;;
2874;SDS011;1445;52.600;13.328;2023-04-25T03:56:03;6.07;;;4.30;;
2874;SDS011;1445;52.600;13.328;2023-04-25T03:58:29;10.25;;;4.53;;
2874;SDS011;1445;52.600;13.328;2023-04-25T04:00:54;7.88;;;4.25;;
2874;SDS011;1445;52.600;13.328;2023-04-25T04:03:20;7.43;;;4.13;;
2874;SDS011;1445;52.600;13.328;2023-04-25T04:05:45;8.70;;;4.78;;
2874;SDS011;1445;52.600;13.328;2023-04-25T04:08:11;6.80;;;4.40;;
2874;SDS011;1445;52.600;13.328;2023-04-25T04:10:37;8.85;;;4.68;;
2874;SDS011;1445;52.600;13.328;2023-04-25T04:13:02;11.02;;;4.72;;
2874;SDS011;1445;52.600;13.328;2023-04-25T04:15:27;10.45;;;4.80;;
2874;SDS011;1445;52.600;13.328;2023-04-25T04:17:54;8.98;;;4.15;;
2874;SDS011;1445;52.600;13.328;2023-04-25T04:20:20;7.43;;;3.85;;
2874;SDS011;1445;52.600;13.328;2023-04-25T04:22:45;7.07;;;3.97;;
2874;SDS011;1445;52.600;13.328;2023-04-25T04:25:11;13.73;;;6.03;;
2874;SDS011;1445;52.600;13.328;2023-04-25T04:27:37;9.55;;;4.65;;
2874;SDS011;1445;52.600;13.328;2023-04-25T04:30:03;9.55;;;4.90;;
2874;SDS011;1445;52.600;13.328;2023-04-25T04:32:28;8.77;;;4.10;;
2874;SDS011;1445;52.600;13.328;2023-04-25T04:34:55;8.85;;;4.68;;
2874;SDS011;1445;52.600;13.328;2023-04-25T04:37:20;7.68;;;4.55;;
2874;SDS011;1445;52.600;13.328;2023-04-25T04:39:45;5.53;;;4.05;;
2874;SDS011;1445;52.600;13.328;2023-04-25T04:42:11;7.22;;;3.90;;
2874;SDS011;1445;52.600;13.328;2023-04-25T04:44:36;7.18;;;4.00;;
2874;SDS011;1445;52.600;13.328;2023-04-25T04:47:04;8.93;;;4.38;;
2874;SDS011;1445;52.600;13.328;2023-04-25T04:49:31;9.13;;;4.53;;
2874;SDS011;1445;52.600;13.328;2023-04-25T04:51:56;8.52;;;4.45;;
2874;SDS011;1445;52.600;13.328;2023-04-25T04:54:22;7.45;;;3.60;;
2874;SDS011;1445;52.600;13.328;2023-04-25T04:56:47;6.80;;;3.88;;
2874;SDS011;1445;52.600;13.328;2023-04-25T04:59:13;8.48;;;5.00;;
2874;SDS011;1445;52.600;13.328;2023-04-25T05:01:38;6.68;;;4.05;;
2874;SDS011;1445;52.600;13.328;2023-04-25T05:04:04;8.35;;;3.95;;
2874;SDS011;1445;52.600;13.328;2023-04-25T05:06:30;6.70;;;3.38;;
2874;SDS011;1445;52.600;13.328;2023-04-25T05:08:56;8.20;;;4.13;;
2874;SDS011;1445;52.600;13.328;2023-04-25T05:11:23;8.88;;;4.55;;
2874;SDS011;1445;52.600;13.328;2023-04-25T05:13:50;7.95;;;3.80;;
2874;SDS011;1445;52.600;13.328;2023-04-25T05:16:17;4.95;;;3.28;;
2874;SDS011;1445;52.600;13.328;2023-04-25T05:18:42;7.55;;;3.63;;
2874;SDS011;1445;52.600;13.328;2023-04-25T05:21:07;7.43;;;4.00;;
2874;SDS011;1445;52.600;13.328;2023-04-25T05:23:33;11.13;;;4.35;;
2874;SDS011;1445;52.600;13.328;2023-04-25T05:25:58;7.22;;;3.72;;
2874;SDS011;1445;52.600;13.328;2023-04-25T05:28:24;5.50;;;3.63;;
2874;SDS011;1445;52.600;13.328;2023-04-25T05:30:50;6.53;;;3.67;;
2874;SDS011;1445;52.600;13.328;2023-04-25T05:33:16;9.05;;;3.80;;
2874;SDS011;1445;52.600;13.328;2023-04-25T05:35:41;7.88;;;4.38;;
2874;SDS011;1445;52.600;13.328;2023-04-25T05:38:07;7.63;;;3.90;;
2874;SDS011;1445;52.600;13.328;2023-04-25T05:40:32;8.23;;;4.30;;
2874;SDS011;1445;52.600;13.328;2023-04-25T05:42:58;8.00;;;4.68;;
2874;SDS011;1445;52.600;13.328;2023-04-25T05:45:23;6.35;;;3.83;;
2874;SDS011;1445;52.600;13.328;2023-04-25T05:47:49;9.25;;;4.10;;
2874;SDS011;1445;52.600;13.328;2023-04-25T05:50:14;7.45;;;5.03;;
2874;SDS011;1445;52.600;13.328;2023-04-25T05:52:40;10.63;;;4.80;;
2874;SDS011;1445;52.600;13.328;2023-04-25T05:55:05;9.98;;;4.70;;
2874;SDS011;1445;52.600;13.328;2023-04-25T05:57:31;8.07;;;4.70;;
2874;SDS011;1445;52.600;13.328;2023-04-25T05:59:56;9.80;;;5.03;;
2874;SDS011;1445;52.600;13.328;2023-04-25T06:02:22;9.57;;;5.00;;
2874;SDS011;1445;52.600;13.328;2023-04-25T06:04:48;9.25;;;5.25;;
2874;SDS011;1445;52.600;13.328;2023-04-25T06:07:15;9.32;;;4.90;;
2874;SDS011;1445;52.600;13.328;2023-04-25T06:09:41;11.57;;;4.70;;
2874;SDS011;1445;52.600;13.328;2023-04-25T06:12:06;9.40;;;5.00;;
2874;SDS011;1445;52.600;13.328;2023-04-25T06:14:32;13.77;;;5.40;;
2874;SDS011;1445;52.600;13.328;2023-04-25T06:16:58;10.23;;;5.78;;
2874;SDS011;1445;52.600;13.328;2023-04-25T06:19:23;11.68;;;4.93;;
2874;SDS011;1445;52.600;13.328;2023-04-25T06:21:49;10.30;;;4.65;;
2874;SDS011;1445;52.600;13.328;2023-04-25T06:24:14;8.38;;;5.25;;
2874;SDS011;1445;52.600;13.328;2023-04-25T06:26:40;11.95;;;6.15;;
2874;SDS011;1445;52.600;13.328;2023-04-25T06:29:05;9.52;;;5.82;;
2874;SDS011;1445;52.600;13.328;2023-04-25T06:31:30;9.82;;;5.57;;
2874;SDS011;1445;52.600;13.328;2023-04-25T06:33:58;11.80;;;5.95;;
2874;SDS011;1445;52.600;13.328;2023-04-25T06:36:23;9.40;;;4.95;;
2874;SDS011;1445;52.600;13.328;2023-04-25T06:38:53;9.35;;;5.00;;
2874;SDS011;1445;52.600;13.328;2023-04-25T06:41:19;10.02;;;5.25;;
2874;SDS011;1445;52.600;13.328;2023-04-25T06:43:45;8.57;;;5.10;;
2874;SDS011;1445;52.600;13.328;2023-04-25T06:46:11;9.68;;;5.18;;
2874;SDS011;1445;52.600;13.328;2023-04-25T06:48:36;8.52;;;5.30;;
2874;SDS011;1445;52.600;13.328;2023-04-25T06:51:02;11.77;;;5.20;;
2874;SDS011;1445;52.600;13.328;2023-04-25T06:53:28;9.60;;;5.57;;
2874;SDS011;1445;52.600;13.328;2023-04-25T06:55:53;8.85;;;4.93;;
2874;SDS011;1445;52.600;13.328;2023-04-25T06:58:19;10.77;;;5.07;;
2874;SDS011;1445;52.600;13.328;2023-04-25T07:00:44;7.78;;;4.78;;
2874;SDS011;1445;52.600;13.328;2023-04-25T07:03:10;9.80;;;4.88;;
2874;SDS011;1445;52.600;13.328;2023-04-25T07:05:35;9.60;;;6.18;;
2874;SDS011;1445;52.600;13.328;2023-04-25T07:08:01;6.90;;;5.22;;
2874;SDS011;1445;52.600;13.328;2023-04-25T07:10:26;9.45;;;4.82;;
2874;SDS011;1445;52.600;13.328;2023-04-25T07:12:52;7.88;;;5.35;;
2874;SDS011;1445;52.600;13.328;2023-04-25T07:15:18;10.73;;;5.05;;
2874;SDS011;1445;52.600;13.328;2023-04-25T07:17:43;8.90;;;5.05;;
2874;SDS011;1445;52.600;13.328;2023-04-25T07:20:09;9.93;;;5.40;;
2874;SDS011;1445;52.600;13.328;2023-04-25T07:22:35;9.13;;;4.68;;
2874;SDS011;1445;52.600;13.328;2023-04-25T07:25:00;9.85;;;4.57;;
2874;SDS011;1445;52.600;13.328;2023-04-25T07:27:25;11.57;;;5.00;;
2874;SDS011;1445;52.600;13.328;2023-04-25T07:29:51;8.85;;;4.47;;
2874;SDS011;1445;52.600;13.328;2023-04-25T07:32:16;9.95;;;4.32;;
2874;SDS011;1445;52.600;13.328;2023-04-25T07:34:42;11.25;;;4.25;;
2874;SDS011;1445;52.600;13.328;2023-04-25T07:37:07;13.02;;;5.32;;
2874;SDS011;1445;52.600;13.328;2023-04-25T07:39:32;12.60;;;4.63;;
2874;SDS011;1445;52.600;13.328;2023-04-25T07:41:58;13.30;;;3.88;;
2874;SDS011;1445;52.600;13.328;2023-04-25T07:44:23;13.02;;;4.07;;
2874;SDS011;1445;52.600;13.328;2023-04-25T07:46:49;15.60;;;4.50;;
2874;SDS011;1445;52.600;13.328;2023-04-25T07:49:15;10.32;;;4.47;;
2874;SDS011;1445;52.600;13.328;2023-04-25T07:51:40;11.45;;;3.88;;
2874;SDS011;1445;52.600;13.328;2023-04-25T07:54:08;14.73;;;4.10;;
2874;SDS011;1445;52.600;13.328;2023-04-25T07:56:34;10.63;;;3.42;;
2874;SDS011;1445;52.600;13.328;2023-04-25T07:59:00;11.68;;;3.65;;
2874;SDS011;1445;52.600;13.328;2023-04-25T08:01:25;13.27;;;4.15;;
2874;SDS011;1445;52.600;13.328;2023-04-25T08:03:51;13.25;;;3.80;;
2874;SDS011;1445;52.600;13.328;2023-04-25T08:06:17;10.02;;;3.45;;
2874;SDS011;1445;52.600;13.328;2023-04-25T08:08:43;10.95;;;3.47;;
2874;SDS011;1445;52.600;13.328;2023-04-25T08:11:09;12.93;;;3.83;;
2874;SDS011;1445;52.600;13.328;2023-04-25T08:13:34;14.05;;;3.85;;
2874;SDS011;1445;52.600;13.328;2023-04-25T08:16:00;17.52;;;4.20;;
2874;SDS011;1445;52.600;13.328;2023-04-25T08:18:25;11.40;;;4.30;;
2874;SDS011;1445;52.600;13.328;2023-04-25T08:20:50;14.13;;;3.88;;
2874;SDS011;1445;52.600;13.328;2023-04-25T08:23:16;10.68;;;3.13;;
2874;SDS011;1445;52.600;13.328;2023-04-25T08:25:41;17.23;;;5.38;;
2874;SDS011;1445;52.600;13.328;2023-04-25T08:28:07;14.73;;;4.43;;
2874;SDS011;1445;52.600;13.328;2023-04-25T08:30:32;16.25;;;4.45;;
2874;SDS011;1445;52.600;13.328;2023-04-25T08:32:57;12.63;;;4.20;;
2874;SDS011;1445;52.600;13.328;2023-04-25T08:35:23;14.63;;;5.13;;
2874;SDS011;1445;52.600;13.328;2023-04-25T08:37:48;13.40;;;4.15;;
2874;SDS011;1445;52.600;13.328;2023-04-25T08:40:14;11.35;;;3.60;;
2874;SDS011;1445;52.600;13.328;2023-04-25T08:42:41;11.75;;;3.60;;
2874;SDS011;1445;52.600;13.328;2023-04-25T08:45:08;12.38;;;3.72;;
2874;SDS011;1445;52.600;13.328;2023-04-25T08:47:34;12.68;;;3.35;;
2874;SDS011;1445;52.600;13.328;2023-04-25T08:50:02;12.35;;;3.63;;
2874;SDS011;1445;52.600;13.328;2023-04-25T08:52:30;11.10;;;3.30;;
2874;SDS011;1445;52.600;13.328;2023-04-25T08:55:02;12.15;;;3.60;;
2874;SDS011;1445;52.600;13.328;2023-04-25T08:57:29;9.18;;;2.80;;
2874;SDS011;1445;52.600;13.328;2023-04-25T08:59:57;11.50;;;3.15;;
2874;SDS011;1445;52.600;13.328;2023-04-25T09:02:23;13.85;;;3.13;;
2874;SDS011;1445;52.600;13.328;2023-04-25T09:04:49;10.65;;;3.47;;
2874;SDS011;1445;52.600;13.328;2023-04-25T09:07:15;11.65;;;3.88;;
2874;SDS011;1445;52.600;13.328;2023-04-25T09:09:43;8.27;;;2.53;;
2874;SDS011;1445;52.600;13.328;2023-04-25T09:12:09;11.90;;;3.60;;
2874;SDS011;1445;52.600;13.328;2023-04-25T09:14:35;9.18;;;2.90;;
2874;SDS011;1445;52.600;13.328;2023-04-25T09:17:01;10.40;;;3.17;;
2874;SDS011;1445;52.600;13.328;2023-04-25T09:19:33;11.38;;;3.22;;
2874;SDS011;1445;52.600;13.328;2023-04-25T09:22:05;9.30;;;2.83;;
2874;SDS011;1445;52.600;13.328;2023-04-25T09:24:35;8.38;;;2.65;;
2874;SDS011;1445;52.600;13.328;2023-04-25T09:27:06;12.98;;;3.30;;
2874;SDS011;1445;52.600;13.328;2023-04-25T09:29:37;8.23;;;3.05;;
2874;SDS011;1445;52.600;13.328;2023-04-25T09:32:10;6.43;;;2.28;;
2874;SDS011;1445;52.600;13.328;2023-04-25T09:34:40;5.22;;;2.47;;
2874;SDS011;1445;52.600;13.328;2023-04-25T09:37:07;6.63;;;2.67;;
2874;SDS011;1445;52.600;13.328;2023-04-25T09:39:34;7.55;;;1.85;;
2874;SDS011;1445;52.600;13.328;2023-04-25T09:42:00;5.68;;;2.40;;
2874;SDS011;1445;52.600;13.328;2023-04-25T09:44:25;8.38;;;2.30;;
2874;SDS011;1445;52.600;13.328;2023-04-25T09:46:52;7.97;;;2.03;;
2874;SDS011;1445;52.600;13.328;2023-04-25T09:49:19;9.68;;;2.30;;
2874;SDS011;1445;52.600;13.328;2023-04-25T09:51:57;14.32;;;2.67;;
2874;SDS011;1445;52.600;13.328;2023-04-25T09:54:24;10.02;;;2.08;;
2874;SDS011;1445;52.600;13.328;2023-04-25T09:56:51;6.68;;;2.42;;
2874;SDS011;1445;52.600;13.328;2023-04-25T09:59:19;7.18;;;2.10;;
2874;SDS011;1445;52.600;13.328;2023-04-25T10:01:45;9.65;;;2.38;;
2874;SDS011;1445;52.600;13.328;2023-04-25T10:04:13;5.53;;;2.50;;
2874;SDS011;1445;52.600;13.328;2023-04-25T10:06:44;7.10;;;2.20;;
2874;SDS011;1445;52.600;13.328;2023-04-25T10:09:11;7.63;;;2.38;;
2874;SDS011;1445;52.600;13.328;2023-04-25T10:11:37;5.38;;;1.58;;
2874;SDS011;1445;52.600;13.328;2023-04-25T10:14:04;5.70;;;2.15;;
2874;SDS011;1445;52.600;13.328;2023-04-25T10:16:30;6.95;;;2.17;;
2874;SDS011;1445;52.600;13.328;2023-04-25T10:18:56;7.43;;;2.40;;
2874;SDS011;1445;52.600;13.328;2023-04-25T10:21:21;7.13;;;2.10;;
2874;SDS011;1445;52.600;13.328;2023-04-25T10:23:48;5.38;;;2.00;;
2874;SDS011;1445;52.600;13.328;2023-04-25T10:26:14;8.07;;;2.25;;
2874;SDS011;1445;52.600;13.328;2023-04-25T10:31:31;8.02;;;2.42;;
2874;SDS011;1445;52.600;13.328;2023-04-25T10:33:57;11.88;;;3.90;;
2874;SDS011;1445;52.600;13.328;2023-04-25T10:36:23;7.60;;;2.10;;
2874;SDS011;1445;52.600;13.328;2023-04-25T10:38:52;5.90;;;2.50;;
2874;SDS011;1445;52.600;13.328;2023-04-25T10:41:21;5.85;;;1.90;;
2874;SDS011;1445;52.600;13.328;2023-04-25T10:43:48;7.88;;;1.95;;
2874;SDS011;1445;52.600;13.328;2023-04-25T10:46:22;7.18;;;2.40;;
2874;SDS011;1445;52.600;13.328;2023-04-25T10:48:59;5.88;;;2.00;;
2874;SDS011;1445;52.600;13.328;2023-04-25T10:51:29;5.38;;;2.22;;
2874;SDS011;1445;52.600;13.328;2023-04-25T10:56:28;5.60;;;2.05;;
2874;SDS011;1445;52.600;13.328;2023-04-25T10:59:16;7.35;;;2.10;;
2874;SDS011;1445;52.600;13.328;2023-04-25T11:01:45;6.65;;;1.83;;
2874;SDS011;1445;52.600;13.328;2023-04-25T11:06:55;8.10;;;2.22;;
2874;SDS011;1445;52.600;13.328;2023-04-25T11:09:35;6.10;;;1.65;;
2874;SDS011;1445;52.600;13.328;2023-04-25T11:12:03;7.18;;;2.30;;
2874;SDS011;1445;52.600;13.328;2023-04-25T11:14:29;10.50;;;1.88;;
2874;SDS011;1445;52.600;13.328;2023-04-25T11:16:56;6.38;;;1.83;;
2874;SDS011;1445;52.600;13.328;2023-04-25T11:19:23;7.78;;;2.55;;
2874;SDS011;1445;52.600;13.328;2023-04-25T11:21:49;6.47;;;2.17;;
2874;SDS011;1445;52.600;13.328;2023-04-25T11:24:17;5.00;;;1.77;;
2874;SDS011;1445;52.600;13.328;2023-04-25T11:26:43;3.92;;;1.83;;
2874;SDS011;1445;52.600;13.328;2023-04-25T11:29:12;4.85;;;1.80;;
2874;SDS011;1445;52.600;13.328;2023-04-25T11:31:38;6.20;;;1.52;;
2874;SDS011;1445;52.600;13.328;2023-04-25T11:34:03;7.38;;;1.90;;
2874;SDS011;1445;52.600;13.328;2023-04-25T11:36:28;8.73;;;2.22;;
2874;SDS011;1445;52.600;13.328;2023-04-25T11:38:55;6.30;;;1.45;;
2874;SDS011;1445;52.600;13.328;2023-04-25T11:41:21;5.97;;;1.70;;
2874;SDS011;1445;52.600;13.328;2023-04-25T11:43:47;9.35;;;2.00;;
2874;SDS011;1445;52.600;13.328;2023-04-25T11:46:14;4.45;;;1.52;;
2874;SDS011;1445;52.600;13.328;2023-04-25T11:48:39;7.65;;;1.83;;
2874;SDS011;1445;52.600;13.328;2023-04-25T11:51:05;5.90;;;2.08;;
2874;SDS011;1445;52.600;13.328;2023-04-25T11:53:31;4.78;;;1.60;;
2874;SDS011;1445;52.600;13.328;2023-04-25T11:55:56;7.38;;;2.03;;
2874;SDS011;1445;52.600;13.328;2023-04-25T11:58:22;5.55;;;2.10;;
2874;SDS011;1445;52.600;13.328;2023-04-25T12:00:48;7.10;;;2.53;;
2874;SDS011;1445;52.600;13.328;2023-04-25T12:03:13;6.93;;;1.92;;
2874;SDS011;1445;52.600;13.328;2023-04-25T12:05:38;5.65;;;1.50;;
2874;SDS011;1445;52.600;13.328;2023-04-25T12:08:15;7.07;;;1.92;;
2874;SDS011;1445;52.600;13.328;2023-04-25T12:10:42;6.15;;;1.45;;
2874;SDS011;1445;52.600;13.328;2023-04-25T12:15:47;5.70;;;2.33;;
2874;SDS011;1445;52.600;13.328;2023-04-25T12:18:13;7.25;;;1.75;;
2874;SDS011;1445;52.600;13.328;2023-04-25T12:20:39;11.18;;;2.33;;
2874;SDS011;1445;52.600;13.328;2023-04-25T12:23:07;3.70;;;1.50;;
2874;SDS011;1445;52.600;13.328;2023-04-25T12:25:40;4.65;;;1.77;;
2874;SDS011;1445;52.600;13.328;2023-04-25T12:28:10;9.82;;;2.00;;
2874;SDS011;1445;52.600;13.328;2023-04-25T12:30:56;8.40;;;1.90;;
2874;SDS011;1445;52.600;13.328;2023-04-25T12:33:33;5.05;;;1.40;;
2874;SDS011;1445;52.600;13.328;2023-04-25T12:36:03;4.93;;;1.67;;
2874;SDS011;1445;52.600;13.328;2023-04-25T12:38:37;5.13;;;1.90;;
2874;SDS011;1445;52.600;13.328;2023-04-25T12:41:04;5.22;;;1.80;;
2874;SDS011;1445;52.600;13.328;2023-04-25T12:43:30;7.30;;;2.22;;
2874;SDS011;1445;52.600;13.328;2023-04-25T12:45:55;6.40;;;2.22;;
2874;SDS011;1445;52.600;13.328;2023-04-25T12:48:22;8.27;;;2.30;;
2874;SDS011;1445;52.600;13.328;2023-04-25T12:50:48;5.30;;;2.17;;
2874;SDS011;1445;52.600;13.328;2023-04-25T12:53:15;8.18;;;2.22;;
2874;SDS011;1445;52.600;13.328;2023-04-25T12:55:41;4.93;;;1.85;;
2874;SDS011;1445;52.600;13.328;2023-04-25T12:58:06;4.72;;;1.70;;
2874;SDS011;1445;52.600;13.328;2023-04-25T13:00:32;4.45;;;1.60;;
2874;SDS011;1445;52.600;13.328;2023-04-25T13:02:58;5.72;;;1.65;;
2874;SDS011;1445;52.600;13.328;2023-04-25T13:05:24;5.78;;;1.67;;
2874;SDS011;1445;52.600;13.328;2023-04-25T13:07:50;4.88;;;2.40;;
2874;SDS011;1445;52.600;13.328;2023-04-25T13:10:16;5.53;;;2.47;;
2874;SDS011;1445;52.600;13.328;2023-04-25T13:12:42;6.43;;;1.83;;
2874;SDS011;1445;52.600;13.328;2023-04-25T13:15:08;5.50;;;1.42;;
2874;SDS011;1445;52.600;13.328;2023-04-25T13:17:36;3.47;;;1.52;;
2874;SDS011;1445;52.600;13.328;2023-04-25T13:20:03;4.40;;;1.70;;
2874;SDS011;1445;52.600;13.328;2023-04-25T13:22:31;4.43;;;1.70;;
2874;SDS011;1445;52.600;13.328;2023-04-25T13:24:56;6.00;;;1.85;;
2874;SDS011;1445;52.600;13.328;2023-04-25T13:27:22;5.65;;;1.40;;
2874;SDS011;1445;52.600;13.328;2023-04-25T13:29:47;7.50;;;2.72;;
2874;SDS011;1445;52.600;13.328;2023-04-25T13:32:13;5.82;;;1.88;;
2874;SDS011;1445;52.600;13.328;2023-04-25T13:34:38;5.80;;;1.85;;
2874;SDS011;1445;52.600;13.328;2023-04-25T13:37:05;6.07;;;2.05;;
2874;SDS011;1445;52.600;13.328;2023-04-25T13:39:31;5.38;;;1.80;;
2874;SDS011;1445;52.600;13.328;2023-04-25T13:41:56;7.13;;;2.13;;
2874;SDS011;1445;52.600;13.328;2023-04-25T13:44:22;4.80;;;1.80;;
2874;SDS011;1445;52.600;13.328;2023-04-25T13:46:47;7.53;;;1.60;;
2874;SDS011;1445;52.600;13.328;2023-04-25T13:49:13;7.63;;;1.90;;
2874;SDS011;1445;52.600;13.328;2023-04-25T13:51:39;4.72;;;1.75;;
2874;SDS011;1445;52.600;13.328;2023-04-25T13:54:05;4.57;;;1.60;;
2874;SDS011;1445;52.600;13.328;2023-04-25T13:56:32;5.22;;;1.65;;
2874;SDS011;1445;52.600;13.328;2023-04-25T13:58:58;6.43;;;1.60;;
2874;SDS011;1445;52.600;13.328;2023-04-25T14:01:23;3.90;;;1.50;;
2874;SDS011;1445;52.600;13.328;2023-04-25T14:03:49;6.40;;;2.00;;
2874;SDS011;1445;52.600;13.328;2023-04-25T14:06:14;5.30;;;1.80;;
2874;SDS011;1445;52.600;13.328;2023-04-25T14:08:46;6.35;;;1.70;;
2874;SDS011;1445;52.600;13.328;2023-04-25T14:11:11;5.03;;;1.60;;
2874;SDS011;1445;52.600;13.328;2023-04-25T14:13:37;6.72;;;1.30;;
2874;SDS011;1445;52.600;13.328;2023-04-25T14:16:02;4.32;;;1.30;;
2874;SDS011;1445;52.600;13.328;2023-04-25T14:18:28;4.60;;;1.65;;
2874;SDS011;1445;52.600;13.328;2023-04-25T14:20:53;4.72;;;1.48;;
2874;SDS011;1445;52.600;13.328;2023-04-25T14:23:19;3.85;;;1.40;;
2874;SDS011;1445;52.600;13.328;2023-04-25T14:25:44;4.95;;;1.65;;
2874;SDS011;1445;52.600;13.328;2023-04-25T14:28:10;5.90;;;1.67;;
2874;SDS011;1445;52.600;13.328;2023-04-25T14:30:35;5.50;;;1.77;;
2874;SDS011;1445;52.600;13.328;2023-04-25T14:33:00;4.63;;;1.58;;
2874;SDS011;1445;52.600;13.328;2023-04-25T14:35:26;3.20;;;1.70;;
2874;SDS011;1445;52.600;13.328;2023-04-25T14:37:52;5.40;;;2.17;;
2874;SDS011;1445;52.600;13.328;2023-04-25T14:40:18;4.03;;;1.70;;
2874;SDS011;1445;52.600;13.328;2023-04-25T14:42:43;5.10;;;2.15;;
2874;SDS011;1445;52.600;13.328;2023-04-25T14:45:08;3.42;;;1.42;;
2874;SDS011;1445;52.600;13.328;2023-04-25T14:47:37;4.35;;;1.83;;
2874;SDS011;1445;52.600;13.328;2023-04-25T14:50:03;4.13;;;1.67;;
2874;SDS011;1445;52.600;13.328;2023-04-25T14:52:29;4.05;;;1.30;;
2874;SDS011;1445;52.600;13.328;2023-04-25T14:54:58;4.93;;;1.20;;
2874;SDS011;1445;52.600;13.328;2023-04-25T14:57:30;2.45;;;1.30;;
2874;SDS011;1445;52.600;13.328;2023-04-25T14:59:56;5.38;;;1.20;;
2874;SDS011;1445;52.600;13.328;2023-04-25T15:02:23;4.90;;;1.23;;
2874;SDS011;1445;52.600;13.328;2023-04-25T15:04:49;2.55;;;1.00;;